createdAt,value
2023-02-27T00:02:25.435Z,0.09
2023-02-27T00:04:52.097Z,-0.18
2023-02-27T00:07:18.510Z,-0.14
2023-02-27T00:09:44.834Z,-0.09
2023-02-27T00:12:12.062Z,-0.13
2023-02-27T00:14:38.465Z,-0.13
2023-02-27T00:17:04.806Z,-0.14
2023-02-27T00:19:31.127Z,-0.16
2023-02-27T00:21:57.516Z,-0.08
2023-02-27T00:24:23.883Z,-0.01
2023-02-27T00:26:50.299Z,-0.02
2023-02-27T00:29:16.644Z,0.04
2023-02-27T00:31:43.082Z,0.03
2023-02-27T00:34:09.480Z,0.09
2023-02-27T00:36:35.913Z,0.09
2023-02-27T00:39:02.384Z,0.03
2023-02-27T00:41:29.075Z,-0.03
2023-02-27T00:43:55.512Z,-0.03
2023-02-27T00:46:22.301Z,-0.03
2023-02-27T00:48:48.712Z,-0.01
2023-02-27T00:51:15.151Z,-0.03
2023-02-27T00:53:41.542Z,-0.07
2023-02-27T00:56:08.296Z,-0.08
2023-02-27T00:58:34.625Z,-0.03
2023-02-27T01:01:01.054Z,-0.01
2023-02-27T01:03:27.674Z,-0.15
2023-02-27T01:05:54.090Z,-0.12
2023-02-27T01:08:20.729Z,-0.17
2023-02-27T01:10:47.094Z,-0.22
2023-02-27T01:13:13.472Z,-0.25
2023-02-27T01:15:39.837Z,-0.24
2023-02-27T01:18:06.142Z,-0.20
2023-02-27T01:20:32.505Z,-0.21
2023-02-27T01:22:58.831Z,-0.28
2023-02-27T01:25:25.237Z,-0.30
2023-02-27T01:27:51.632Z,-0.30
2023-02-27T01:30:18.336Z,-0.32
2023-02-27T01:32:45.342Z,-0.29
2023-02-27T01:35:11.998Z,-0.27
2023-02-27T01:37:38.868Z,-0.32
2023-02-27T01:40:07.156Z,-0.31
2023-02-27T01:42:33.776Z,-0.32
2023-02-27T01:45:12.288Z,-0.46
2023-02-27T01:47:44.214Z,-0.63
2023-02-27T01:50:11.972Z,-0.58
2023-02-27T01:52:41.160Z,-0.73
2023-02-27T01:55:09.266Z,-0.78
2023-02-27T01:57:36.177Z,-0.80
2023-02-27T02:00:04.301Z,-0.78
2023-02-27T02:02:37.723Z,-0.83
2023-02-27T02:05:06.826Z,-0.80
2023-02-27T02:07:35.232Z,-0.69
2023-02-27T02:10:02.437Z,-0.65
2023-02-27T02:12:33.824Z,-0.55
2023-02-27T02:15:00.222Z,-0.57
2023-02-27T02:17:45.802Z,-0.53
2023-02-27T02:20:12.104Z,-0.48
2023-02-27T02:22:50.859Z,-0.51
2023-02-27T02:25:45.291Z,-0.55
2023-02-27T02:29:01.824Z,-0.55
2023-02-27T02:32:03.670Z,-0.60
2023-02-27T02:34:39.225Z,-0.70
2023-02-27T02:37:14.727Z,-0.72
2023-02-27T02:40:08.335Z,-0.80
2023-02-27T02:42:44.688Z,-0.86
2023-02-27T02:45:14.185Z,-0.84
2023-02-27T02:47:58.769Z,-0.87
2023-02-27T02:50:33.423Z,-0.88
2023-02-27T02:53:21.697Z,-1.08
2023-02-27T02:55:53.350Z,-1.08
2023-02-27T02:58:45.698Z,-1.00
2023-02-27T03:01:21.565Z,-0.99
2023-02-27T03:03:53.503Z,-0.92
2023-02-27T03:06:33.300Z,-0.86
2023-02-27T03:09:19.997Z,-0.81
2023-02-27T03:11:51.064Z,-0.85
2023-02-27T03:14:42.765Z,-0.85
2023-02-27T03:17:18.143Z,-0.86
2023-02-27T03:19:55.683Z,-0.96
2023-02-27T03:22:28.448Z,-1.01
2023-02-27T03:24:58.130Z,-1.02
2023-02-27T03:27:30.399Z,-1.11
2023-02-27T03:30:02.874Z,-1.23
2023-02-27T03:32:38.434Z,-1.20
2023-02-27T03:35:07.349Z,-1.12
2023-02-27T03:38:01.137Z,-1.06
2023-02-27T03:40:51.399Z,-1.05
2023-02-27T03:43:44.812Z,-1.24
2023-02-27T03:46:16.185Z,-1.23
2023-02-27T03:48:44.632Z,-1.21
2023-02-27T03:51:35.407Z,-1.28
2023-02-27T03:54:16.965Z,-1.25
2023-02-27T03:56:52.913Z,-1.29
2023-02-27T03:59:19.410Z,-1.33
2023-02-27T04:01:45.928Z,-1.42
2023-02-27T04:04:16.960Z,-1.44
2023-02-27T04:07:10.889Z,-1.40
2023-02-27T04:10:14.132Z,-1.40
2023-02-27T04:13:01.889Z,-1.38
2023-02-27T04:15:52.851Z,-1.43
2023-02-27T04:18:38.056Z,-1.42
2023-02-27T04:21:10.693Z,-1.46
2023-02-27T04:23:58.690Z,-1.49
2023-02-27T04:26:43.738Z,-1.53
2023-02-27T04:29:31.186Z,-1.51
2023-02-27T04:32:04.603Z,-1.60
2023-02-27T04:34:31.035Z,-1.55
2023-02-27T04:37:08.406Z,-1.56
2023-02-27T04:39:41.943Z,-1.61
2023-02-27T04:42:19.334Z,-1.49
2023-02-27T04:44:48.069Z,-1.50
2023-02-27T04:47:16.798Z,-1.63
2023-02-27T04:50:16.712Z,-1.64
2023-02-27T04:52:49.978Z,-1.66
2023-02-27T04:55:28.058Z,-1.57
2023-02-27T04:58:02.985Z,-1.61
2023-02-27T05:00:32.929Z,-1.66
2023-02-27T05:03:09.273Z,-1.64
2023-02-27T05:05:38.169Z,-1.75
2023-02-27T05:08:16.680Z,-1.70
2023-02-27T05:10:46.756Z,-1.65
2023-02-27T05:13:18.719Z,-1.67
2023-02-27T05:16:33.081Z,-1.56
2023-02-27T05:19:01.447Z,-1.64
2023-02-27T05:21:34.260Z,-1.63
2023-02-27T05:24:14.023Z,-1.69
2023-02-27T05:27:01.461Z,-1.64
2023-02-27T05:29:33.161Z,-1.60
2023-02-27T05:32:34.272Z,-1.67
2023-02-27T05:35:09.677Z,-1.80
2023-02-27T05:37:56.636Z,-1.91
2023-02-27T05:40:27.553Z,-1.91
2023-02-27T05:43:05.575Z,-1.84
2023-02-27T05:45:34.708Z,-1.78
2023-02-27T05:48:07.496Z,-1.72
2023-02-27T05:50:36.528Z,-1.87
2023-02-27T05:53:09.198Z,-1.83
2023-02-27T05:55:39.372Z,-1.80
2023-02-27T05:58:08.527Z,-1.87
2023-02-27T06:00:43.626Z,-2.00
2023-02-27T06:03:10.134Z,-2.04
2023-02-27T06:05:38.376Z,-2.01
2023-02-27T06:08:04.748Z,-1.93
2023-02-27T06:10:31.362Z,-1.90
2023-02-27T06:12:57.743Z,-1.86
2023-02-27T06:15:24.143Z,-1.98
2023-02-27T06:17:50.558Z,-2.22
2023-02-27T06:20:17.223Z,-2.18
2023-02-27T06:22:43.644Z,-2.10
2023-02-27T06:25:10.091Z,-2.05
2023-02-27T06:27:36.706Z,-2.08
2023-02-27T06:30:03.518Z,-2.10
2023-02-27T06:32:30.165Z,-1.95
2023-02-27T06:34:56.629Z,-1.94
2023-02-27T06:37:23.144Z,-2.03
2023-02-27T06:39:49.575Z,-2.02
2023-02-27T06:42:16.443Z,-1.94
2023-02-27T06:44:42.767Z,-1.82
2023-02-27T06:47:09.455Z,-1.74
2023-02-27T06:49:36.043Z,-1.68
2023-02-27T06:52:02.375Z,-1.74
2023-02-27T06:54:28.746Z,-1.66
2023-02-27T06:56:55.110Z,-1.52
2023-02-27T06:59:21.725Z,-1.59
2023-02-27T07:01:48.423Z,-1.59
2023-02-27T07:04:15.913Z,-1.50
2023-02-27T07:07:34.017Z,-1.43
2023-02-27T07:09:28.688Z,-1.38
2023-02-27T07:11:55.144Z,-1.38
2023-02-27T07:14:21.853Z,-1.24
2023-02-27T07:16:50.893Z,-1.17
2023-02-27T07:19:18.564Z,-1.05
2023-02-27T07:21:45.131Z,-0.96
2023-02-27T07:24:11.851Z,-0.89
2023-02-27T07:26:38.319Z,-0.77
2023-02-27T07:29:05.266Z,-0.72
2023-02-27T07:31:32.290Z,-0.63
2023-02-27T07:33:58.796Z,-0.56
2023-02-27T07:36:25.512Z,-0.44
2023-02-27T07:38:51.958Z,-0.32
2023-02-27T07:41:29.979Z,-0.24
2023-02-27T07:43:57.286Z,-0.15
2023-02-27T07:46:24.797Z,-0.08
2023-02-27T07:48:51.209Z,0.01
2023-02-27T07:51:18.578Z,0.05
2023-02-27T07:53:44.987Z,0.21
2023-02-27T07:56:11.515Z,0.26
2023-02-27T07:58:37.954Z,0.38
2023-02-27T08:01:04.466Z,0.56
2023-02-27T08:03:30.781Z,0.75
2023-02-27T08:05:57.225Z,0.98
2023-02-27T08:08:23.839Z,1.22
2023-02-27T08:10:50.460Z,1.33
2023-02-27T08:13:18.025Z,1.40
2023-02-27T08:15:47.352Z,1.55
2023-02-27T08:18:13.775Z,1.59
2023-02-27T08:20:40.157Z,1.68
2023-02-27T08:23:06.977Z,1.84
2023-02-27T08:25:33.539Z,1.92
2023-02-27T08:27:59.927Z,2.03
2023-02-27T08:30:26.257Z,2.09
2023-02-27T08:32:52.846Z,2.20
2023-02-27T08:35:19.179Z,2.29
2023-02-27T08:37:45.558Z,2.19
2023-02-27T08:40:12.270Z,2.30
2023-02-27T08:42:38.803Z,2.42
2023-02-27T08:45:05.574Z,2.54
2023-02-27T08:47:32.090Z,2.46
2023-02-27T08:49:58.436Z,2.62
2023-02-27T08:52:25.144Z,2.90
2023-02-27T08:54:51.841Z,2.86
2023-02-27T08:57:18.198Z,2.86
2023-02-27T08:59:44.684Z,3.06
2023-02-27T09:02:11.607Z,3.27
2023-02-27T09:04:37.963Z,3.40
2023-02-27T09:07:04.400Z,3.60
2023-02-27T09:09:30.930Z,3.59
2023-02-27T09:11:57.573Z,3.75
2023-02-27T09:14:24.271Z,3.89
2023-02-27T09:16:50.645Z,4.03
2023-02-27T09:19:17.260Z,4.19
2023-02-27T09:21:43.767Z,4.26
2023-02-27T09:24:19.876Z,4.22
2023-02-27T09:26:47.482Z,4.31
2023-02-27T09:29:14.396Z,4.48
2023-02-27T09:31:40.825Z,4.75
2023-02-27T09:34:07.611Z,4.80
2023-02-27T09:36:34.070Z,4.94
2023-02-27T09:39:00.525Z,5.08
2023-02-27T09:41:57.617Z,5.21
2023-02-27T09:44:45.136Z,5.31
2023-02-27T09:47:16.831Z,5.43
2023-02-27T09:50:11.797Z,5.38
2023-02-27T09:52:39.439Z,5.25
2023-02-27T09:55:15.694Z,4.94
2023-02-27T09:58:01.674Z,4.79
2023-02-27T10:00:38.133Z,4.64
2023-02-27T10:03:04.524Z,4.63
2023-02-27T10:05:49.090Z,4.82
2023-02-27T10:08:32.725Z,5.20
2023-02-27T10:11:04.834Z,4.75
2023-02-27T10:13:49.766Z,4.93
2023-02-27T10:16:20.733Z,4.93
2023-02-27T10:18:55.669Z,4.86
2023-02-27T10:21:33.411Z,4.84
2023-02-27T10:24:23.920Z,4.70
2023-02-27T10:26:54.794Z,4.82
2023-02-27T10:29:40.047Z,5.07
2023-02-27T10:32:14.874Z,5.14
2023-02-27T10:34:44.181Z,5.18
2023-02-27T10:37:15.163Z,5.02
2023-02-27T10:39:47.545Z,5.07
2023-02-27T10:42:16.254Z,5.09
2023-02-27T10:44:42.754Z,5.20
2023-02-27T10:47:15.425Z,5.11
2023-02-27T10:49:43.257Z,5.22
2023-02-27T10:52:13.933Z,5.34
2023-02-27T10:54:41.731Z,5.27
2023-02-27T10:57:21.802Z,5.34
2023-02-27T11:00:26.438Z,5.59
2023-02-27T11:02:53.012Z,5.54
2023-02-27T11:05:26.413Z,5.39
2023-02-27T11:07:52.993Z,5.49
2023-02-27T11:10:28.771Z,5.59
2023-02-27T11:13:03.316Z,5.69
2023-02-27T11:15:32.668Z,5.53
2023-02-27T11:18:31.164Z,5.45
2023-02-27T11:21:20.000Z,5.74
2023-02-27T11:23:51.805Z,5.89
2023-02-27T11:26:28.134Z,5.88
2023-02-27T11:29:11.567Z,6.06
2023-02-27T11:31:39.639Z,6.13
2023-02-27T11:34:08.261Z,5.95
2023-02-27T11:36:46.857Z,5.80
2023-02-27T11:39:34.677Z,6.04
2023-02-27T11:42:23.626Z,5.97
2023-02-27T11:44:56.270Z,6.07
2023-02-27T11:47:31.386Z,5.99
2023-02-27T11:50:25.779Z,6.04
2023-02-27T11:53:29.751Z,5.98
2023-02-27T11:55:59.900Z,6.13
2023-02-27T11:58:30.193Z,5.97
2023-02-27T12:01:08.094Z,6.06
2023-02-27T12:03:53.377Z,6.05
2023-02-27T12:06:26.418Z,6.02
2023-02-27T12:08:59.098Z,6.12
2023-02-27T12:11:32.836Z,6.42
2023-02-27T12:14:14.509Z,6.77
2023-02-27T12:16:46.332Z,6.77
2023-02-27T12:19:21.246Z,6.74
2023-02-27T12:21:52.104Z,6.87
2023-02-27T12:24:25.633Z,7.14
2023-02-27T12:27:15.910Z,7.33
2023-02-27T12:29:50.412Z,7.48
2023-02-27T12:32:26.078Z,7.46
2023-02-27T12:35:25.994Z,7.39
2023-02-27T12:37:52.906Z,7.51
2023-02-27T12:40:25.579Z,7.79
2023-02-27T12:43:11.554Z,8.01
2023-02-27T12:45:51.832Z,7.95
2023-02-27T12:48:44.383Z,7.75
2023-02-27T12:51:35.172Z,7.88
2023-02-27T12:54:26.867Z,7.88
2023-02-27T12:57:20.578Z,7.92
2023-02-27T12:59:53.611Z,8.12
2023-02-27T13:02:32.271Z,8.28
2023-02-27T13:05:09.472Z,8.44
2023-02-27T13:07:48.828Z,7.91
2023-02-27T13:10:31.730Z,8.11
2023-02-27T13:13:09.666Z,8.17
2023-02-27T13:15:50.969Z,8.20
2023-02-27T13:18:40.194Z,8.25
2023-02-27T13:21:12.679Z,8.08
2023-02-27T13:24:23.968Z,8.04
2023-02-27T13:26:57.569Z,8.16
2023-02-27T13:29:37.098Z,8.10
2023-02-27T13:32:41.342Z,8.66
2023-02-27T13:35:29.164Z,9.03
2023-02-27T13:38:02.364Z,9.22
2023-02-27T13:40:40.681Z,9.88
2023-02-27T13:43:51.729Z,9.40
2023-02-27T13:46:32.859Z,9.07
2023-02-27T13:49:05.088Z,9.59
2023-02-27T13:51:38.301Z,9.88
2023-02-27T13:54:07.645Z,9.79
2023-02-27T13:56:34.159Z,10.22
2023-02-27T13:59:28.992Z,10.66
2023-02-27T14:02:10.683Z,9.91
2023-02-27T14:04:54.944Z,9.07
2023-02-27T14:07:24.094Z,9.48
2023-02-27T14:09:59.878Z,9.58
2023-02-27T14:12:39.165Z,9.53
2023-02-27T14:15:22.721Z,10.25
2023-02-27T14:17:59.625Z,11.13
2023-02-27T14:20:32.550Z,11.32
2023-02-27T14:23:17.120Z,11.20
2023-02-27T14:25:56.757Z,11.73
2023-02-27T14:28:31.291Z,11.64
2023-02-27T14:31:01.084Z,10.96
2023-02-27T14:33:40.646Z,10.20
2023-02-27T14:36:20.121Z,10.89
2023-02-27T14:38:47.320Z,10.31
2023-02-27T14:41:22.182Z,9.04
2023-02-27T14:43:56.770Z,8.47
2023-02-27T14:46:25.200Z,8.95
2023-02-27T14:48:57.406Z,9.10
2023-02-27T14:51:25.232Z,9.50
2023-02-27T14:54:19.404Z,10.37
2023-02-27T14:57:06.484Z,10.21
2023-02-27T14:59:41.639Z,10.34
2023-02-27T15:02:30.620Z,10.17
2023-02-27T15:05:03.458Z,10.75
2023-02-27T15:07:33.208Z,11.36
2023-02-27T15:10:04.405Z,11.13
2023-02-27T15:12:32.242Z,11.11
2023-02-27T15:15:02.238Z,10.56
2023-02-27T15:17:50.862Z,10.27
2023-02-27T15:20:32.913Z,10.40
2023-02-27T15:23:01.492Z,10.55
2023-02-27T15:25:34.416Z,10.33
2023-02-27T15:28:04.047Z,9.76
2023-02-27T15:30:31.143Z,8.87
2023-02-27T15:32:59.230Z,8.17
2023-02-27T15:35:35.065Z,7.65
2023-02-27T15:38:02.482Z,7.30
2023-02-27T15:40:31.910Z,7.11
2023-02-27T15:43:00.029Z,7.13
2023-02-27T15:45:34.480Z,6.90
2023-02-27T15:48:01.752Z,6.75
2023-02-27T15:50:36.881Z,6.68
2023-02-27T15:53:05.490Z,6.59
2023-02-27T15:55:35.389Z,6.55
2023-02-27T15:58:03.719Z,6.44
2023-02-27T16:00:34.480Z,6.42
2023-02-27T16:03:01.291Z,6.33
2023-02-27T16:05:33.694Z,6.27
2023-02-27T16:08:02.457Z,6.23
2023-02-27T16:10:35.461Z,6.13
2023-02-27T16:13:25.600Z,6.15
2023-02-27T16:16:06.866Z,6.21
2023-02-27T16:18:35.302Z,6.05
2023-02-27T16:21:12.955Z,5.97
2023-02-27T16:23:39.851Z,5.87
2023-02-27T16:26:08.941Z,5.91
2023-02-27T16:29:03.810Z,5.85
2023-02-27T16:31:40.778Z,5.75
2023-02-27T16:34:13.090Z,5.77
2023-02-27T16:36:53.257Z,5.70
2023-02-27T16:39:19.728Z,5.79
2023-02-27T16:41:46.190Z,5.64
2023-02-27T16:44:12.566Z,5.55
2023-02-27T16:46:39.050Z,5.41
2023-02-27T16:49:19.178Z,5.48
2023-02-27T16:51:46.700Z,5.46
2023-02-27T16:54:13.951Z,5.46
2023-02-27T16:56:40.908Z,5.43
2023-02-27T16:59:07.699Z,5.29
2023-02-27T17:01:34.756Z,5.27
2023-02-27T17:04:01.390Z,5.24
2023-02-27T17:06:28.369Z,5.23
2023-02-27T17:08:55.931Z,5.22
2023-02-27T17:11:22.332Z,5.16
2023-02-27T17:13:48.720Z,5.16
2023-02-27T17:16:15.861Z,5.04
2023-02-27T17:18:42.260Z,5.02
2023-02-27T17:21:08.600Z,4.92
2023-02-27T17:23:35.305Z,4.89
2023-02-27T17:26:01.793Z,4.82
2023-02-27T17:28:28.178Z,4.88
2023-02-27T17:30:54.744Z,4.85
2023-02-27T17:33:21.168Z,4.76
2023-02-27T17:35:48.269Z,4.81
2023-02-27T17:38:14.619Z,4.83
2023-02-27T17:40:41.068Z,4.77
2023-02-27T17:43:07.638Z,4.78
2023-02-27T17:45:34.007Z,4.70
2023-02-27T17:48:00.620Z,4.70
2023-02-27T17:50:27.098Z,4.74
2023-02-27T17:52:53.532Z,4.72
2023-02-27T17:55:20.093Z,4.74
2023-02-27T17:57:46.444Z,4.70
2023-02-27T18:00:15.179Z,4.73
2023-02-27T18:02:44.200Z,4.75
2023-02-27T18:05:10.828Z,4.84
2023-02-27T18:07:37.230Z,4.77
2023-02-27T18:10:05.435Z,4.84
2023-02-27T18:12:32.461Z,4.89
2023-02-27T18:14:58.850Z,4.89
2023-02-27T18:17:25.226Z,4.85
2023-02-27T18:19:51.650Z,4.76
2023-02-27T18:22:18.004Z,4.73
2023-02-27T18:24:44.425Z,4.70
2023-02-27T18:27:11.007Z,4.65
2023-02-27T18:29:37.359Z,4.64
2023-02-27T18:32:04.058Z,4.59
2023-02-27T18:34:30.475Z,4.47
2023-02-27T18:36:58.255Z,4.43
2023-02-27T18:39:24.736Z,4.43
2023-02-27T18:41:51.121Z,4.30
2023-02-27T18:44:17.491Z,4.28
2023-02-27T18:46:43.969Z,4.16
2023-02-27T18:49:10.424Z,4.16
2023-02-27T18:51:37.627Z,4.11
2023-02-27T18:54:05.130Z,4.03
2023-02-27T18:56:32.837Z,3.91
2023-02-27T18:59:04.957Z,3.90
2023-02-27T19:01:34.537Z,3.88
2023-02-27T19:04:05.945Z,3.86
2023-02-27T19:06:34.851Z,3.81
2023-02-27T19:09:04.047Z,3.76
2023-02-27T19:11:35.568Z,3.74
2023-02-27T19:14:04.849Z,3.69
2023-02-27T19:16:32.189Z,3.81
2023-02-27T19:19:00.436Z,3.90
2023-02-27T19:21:27.639Z,3.87
2023-02-27T19:23:54.791Z,3.75
2023-02-27T19:26:21.990Z,3.74
2023-02-27T19:28:53.770Z,3.67
2023-02-27T19:31:22.140Z,3.72
2023-02-27T19:36:46.623Z,3.71
2023-02-27T19:39:13.089Z,3.68
2023-02-27T19:41:39.511Z,3.72
2023-02-27T19:44:06.073Z,3.76
2023-02-27T19:46:34.239Z,3.70
2023-02-27T19:49:04.248Z,3.53
2023-02-27T19:51:30.679Z,3.58
2023-02-27T19:53:58.564Z,3.67
2023-02-27T19:56:27.169Z,3.56
2023-02-27T19:58:54.264Z,3.36
2023-02-27T20:01:26.465Z,3.50
2023-02-27T20:03:53.142Z,3.46
2023-02-27T20:06:23.026Z,3.53
2023-02-27T20:08:50.459Z,3.53
2023-02-27T20:11:17.449Z,3.46
2023-02-27T20:13:44.472Z,3.51
2023-02-27T20:16:15.027Z,3.45
2023-02-27T20:18:42.610Z,3.31
2023-02-27T20:21:18.478Z,3.40
2023-02-27T20:23:46.397Z,3.24
2023-02-27T20:26:20.602Z,3.20
2023-02-27T20:28:48.624Z,2.96
2023-02-27T20:31:18.708Z,2.91
2023-02-27T20:33:46.357Z,2.74
2023-02-27T20:36:13.324Z,2.63
2023-02-27T20:38:40.972Z,2.59
2023-02-27T20:41:16.328Z,2.62
2023-02-27T20:43:43.944Z,2.62
2023-02-27T20:46:13.093Z,2.52
2023-02-27T20:48:39.945Z,2.47
2023-02-27T20:51:13.538Z,2.45
2023-02-27T20:53:41.742Z,2.42
2023-02-27T20:56:09.208Z,2.40
2023-02-27T20:58:36.688Z,2.49
2023-02-27T21:01:08.208Z,2.53
2023-02-27T21:03:38.585Z,2.62
2023-02-27T21:06:06.751Z,2.66
2023-02-27T21:08:35.550Z,2.65
2023-02-27T21:11:07.214Z,2.66
2023-02-27T21:13:33.564Z,2.65
2023-02-27T21:16:00.417Z,2.66
2023-02-27T21:18:26.883Z,2.58
2023-02-27T21:20:53.388Z,2.61
2023-02-27T21:23:19.711Z,2.72
2023-02-27T21:25:46.067Z,2.73
2023-02-27T21:28:14.138Z,2.68
2023-02-27T21:30:41.302Z,2.65
2023-02-27T21:33:07.658Z,2.63
2023-02-27T21:35:34.075Z,2.72
2023-02-27T21:38:01.428Z,2.68
2023-02-27T21:40:28.108Z,2.58
2023-02-27T21:42:54.436Z,2.66
2023-02-27T21:45:20.996Z,2.71
2023-02-27T21:47:47.363Z,2.70
2023-02-27T21:50:17.119Z,2.63
2023-02-27T21:52:44.316Z,2.53
2023-02-27T21:55:12.139Z,2.45
2023-02-27T21:57:39.787Z,2.33
2023-02-27T22:00:11.051Z,2.45
2023-02-27T22:02:39.164Z,2.47
2023-02-27T22:05:06.872Z,2.36
2023-02-27T22:07:33.239Z,2.43
2023-02-27T22:09:59.625Z,2.48
2023-02-27T22:12:26.898Z,2.27
2023-02-27T22:14:53.270Z,2.26
2023-02-27T22:17:19.583Z,2.36
2023-02-27T22:19:45.897Z,2.34
2023-02-27T22:22:12.338Z,2.29
2023-02-27T22:24:38.735Z,2.27
2023-02-27T22:27:05.324Z,2.10
2023-02-27T22:29:31.788Z,2.10
2023-02-27T22:31:58.193Z,2.02
2023-02-27T22:34:24.546Z,1.93
2023-02-27T22:36:52.567Z,1.89
2023-02-27T22:39:19.587Z,1.87
2023-02-27T22:41:46.245Z,1.97
2023-02-27T22:44:14.417Z,1.98
2023-02-27T22:46:44.083Z,1.89
2023-02-27T22:49:14.225Z,1.88
2023-02-27T22:51:41.161Z,1.76
2023-02-27T22:54:10.097Z,1.76
2023-02-27T22:56:36.704Z,1.85
2023-02-27T22:59:04.584Z,1.85
2023-02-27T23:01:33.232Z,1.84
2023-02-27T23:04:03.016Z,1.75
2023-02-27T23:06:32.119Z,1.63
2023-02-27T23:08:59.464Z,1.61
2023-02-27T23:11:26.497Z,1.54
2023-02-27T23:13:53.077Z,1.54
2023-02-27T23:16:20.012Z,1.56
2023-02-27T23:18:47.911Z,1.57
2023-02-27T23:21:20.162Z,1.61
2023-02-27T23:23:47.653Z,1.55
2023-02-27T23:26:14.458Z,1.52
2023-02-27T23:28:41.538Z,1.58
2023-02-27T23:31:08.813Z,1.34
2023-02-27T23:33:35.509Z,1.44
2023-02-27T23:36:02.261Z,1.41
2023-02-27T23:38:29.358Z,1.43
2023-02-27T23:40:56.246Z,1.51
2023-02-27T23:43:23.287Z,1.48
2023-02-27T23:45:49.966Z,1.32
2023-02-27T23:48:16.373Z,1.27
2023-02-27T23:50:44.529Z,1.21
2023-02-27T23:53:13.487Z,1.07
2023-02-27T23:55:40.581Z,1.12
2023-02-27T23:58:09.686Z,1.19
